Address 0xf674fb0e7976bcdba988a88f8d5856c15323a6ab

Overview

My Name Tag:
Not Available

Txn Hash Method
Block
From
To
Value [Txn Fee]
0x25c4486fb30217a25ca0daa47438cd8ea5189fc8d033753c6038ed940fbebed8Mint275607602022-08-10 16:53:514 days 5 hrs ago0xf674fb0e7976bcdba988a88f8d5856c15323a6abOUT 0x2ff3b8900de1b4998d4d15b0d0d33f25118753860 MATIC0.000057272297 1.568244723
0x0ba0861ba6777d28040bfde25d5036444ba0f3f3b73d69691bceee152c73526aMint275607582022-08-10 16:53:414 days 5 hrs ago0xf674fb0e7976bcdba988a88f8d5856c15323a6abOUT 0x2ff3b8900de1b4998d4d15b0d0d33f25118753860 MATIC0.000055007808 1.5062379
0xc9f0442713f3b1ee9a17e1e86c9bd7302428e1049694191df9eca39cbdb31fefMint275438682022-08-09 13:53:475 days 8 hrs ago0xf674fb0e7976bcdba988a88f8d5856c15323a6abOUT 0x2ff3b8900de1b4998d4d15b0d0d33f25118753860 MATIC0.000069971931 1.91598935
0x59c9cc1fede3e0d5d0a7e934d5a63b7f91ef80845463b004f496a35b657f7b99Mint275270952022-08-08 8:23:406 days 13 hrs ago0xf674fb0e7976bcdba988a88f8d5856c15323a6abOUT 0x2ff3b8900de1b4998d4d15b0d0d33f25118753860 MATIC0.000089508395 2.450941832
0xd5e96ff3451abf320952b44cd3474c0aa03f29d5bb58d84620985de820d8ec85Mint275264412022-08-08 7:23:406 days 14 hrs ago0xf674fb0e7976bcdba988a88f8d5856c15323a6abOUT 0x2ff3b8900de1b4998d4d15b0d0d33f25118753860 MATIC0.000114618687 3.138518284
0xc0db9a4c09dc64749530e8df59cfab974814c06d66ed2b80ba6651d14e56abc9Mint275262642022-08-08 7:08:526 days 15 hrs ago0xf674fb0e7976bcdba988a88f8d5856c15323a6abOUT 0x2ff3b8900de1b4998d4d15b0d0d33f25118753860 MATIC0.000088101531 2.412418713
0x5ad2a56c1471182930a5c66db4c876690e86686fc8b9509c9fc34a6ae64dcf96Mint275262622022-08-08 7:08:426 days 15 hrs ago0xf674fb0e7976bcdba988a88f8d5856c15323a6abOUT 0x2ff3b8900de1b4998d4d15b0d0d33f25118753860 MATIC0.000093534032 2.56117286
0x35949227104f54afb80a6dd5647224c728ae991e85fd01c61634be7a9532d591Mint275223682022-08-08 1:43:126 days 20 hrs ago0xf674fb0e7976bcdba988a88f8d5856c15323a6abOUT 0x2ff3b8900de1b4998d4d15b0d0d33f25118753860 MATIC0.000047258923 1.294481316
0x02620c200bc0594b0cf676c56abae11ceb49a17e55f27aca178e72147521fa71Mint275215982022-08-08 0:38:496 days 21 hrs ago0xf674fb0e7976bcdba988a88f8d5856c15323a6abOUT 0x2ff3b8900de1b4998d4d15b0d0d33f25118753860 MATIC0.000092080405 2.980334212
0xbe3a65b9c749eec3170e84d49651cd4f7a72b4669718248bfafed986a5d031b7Mint275215962022-08-08 0:38:396 days 21 hrs ago0xf674fb0e7976bcdba988a88f8d5856c15323a6abOUT 0x2ff3b8900de1b4998d4d15b0d0d33f25118753860 MATIC0.000094229867 3.049905072
0x41b9479a1756b20a778136d0c744cefe9513c63362f1b0f23a16487e0a577d0dMint275208792022-08-07 23:38:436 days 22 hrs ago0xf674fb0e7976bcdba988a88f8d5856c15323a6abOUT 0x2ff3b8900de1b4998d4d15b0d0d33f25118753860 MATIC0.000198790229 5.443325002
0x5fc1563803778112a88822bbe6994f5bda0890aefc8dd047384df714ed3f3516Mint275192142022-08-07 21:08:527 days 1 hr ago0xf674fb0e7976bcdba988a88f8d5856c15323a6abOUT 0x2ff3b8900de1b4998d4d15b0d0d33f25118753860 MATIC0.000122532967 3.356331955
0x3e988f2c168643d06599d0117a2418e117cd59e8686896584458f5a1c8255201Mint275192122022-08-07 21:08:427 days 1 hr ago0xf674fb0e7976bcdba988a88f8d5856c15323a6abOUT 0x2ff3b8900de1b4998d4d15b0d0d33f25118753860 MATIC0.000123802408 3.389989292
0x19e788736cb47896b7ad49f4e3c20d9f975aa82ab50c93a24e9b25c6f7b817ddMint275190342022-08-07 20:53:497 days 1 hr ago0xf674fb0e7976bcdba988a88f8d5856c15323a6abOUT 0x2ff3b8900de1b4998d4d15b0d0d33f25118753860 MATIC0.000058662301 1.60683416
0x38e7a3136cfbddb147fe7cab3d45ca6e4ba08add84cc81099365f5fb9c33be4bMint275173672022-08-07 18:23:487 days 3 hrs ago0xf674fb0e7976bcdba988a88f8d5856c15323a6abOUT 0x2ff3b8900de1b4998d4d15b0d0d33f25118753860 MATIC0.000148606581 4.069183508
0x5feacfba4b167c112ecab82fcdf14f6247859aea26730b0d6f0596f88930445fMint275168922022-08-07 17:38:467 days 4 hrs ago0xf674fb0e7976bcdba988a88f8d5856c15323a6abOUT 0x2ff3b8900de1b4998d4d15b0d0d33f25118753860 MATIC0.000356638131 9.765556722
0x55a408fe27ba32a09eddf88065580d49ccf91603e1d74ebeb61d56e2046d4c33Mint275163522022-08-07 16:48:187 days 5 hrs ago0xf674fb0e7976bcdba988a88f8d5856c15323a6abOUT 0x2ff3b8900de1b4998d4d15b0d0d33f25118753860 MATIC0.000249055702 6.819707079
0x7f72c54a209ca5dd0efb717660393caf78032d53d917fa5d7d989367c0fe5d5eMint275152262022-08-07 15:08:507 days 7 hrs ago0xf674fb0e7976bcdba988a88f8d5856c15323a6abOUT 0x2ff3b8900de1b4998d4d15b0d0d33f25118753860 MATIC0.000431287464 11.809623897
0xacf18167ce0e831749f4efcf57e2e6759a26f86463e6bc2e37fc7dc6c4a89e99Mint275152242022-08-07 15:08:407 days 7 hrs ago0xf674fb0e7976bcdba988a88f8d5856c15323a6abOUT 0x2ff3b8900de1b4998d4d15b0d0d33f25118753860 MATIC0.000512126722 14.023185171
0xb2020c8a97fb727fd6aa3e32870d9e37b098757938b46216510e211bd4a5bb20Mint275142772022-08-07 13:38:507 days 8 hrs ago0xf674fb0e7976bcdba988a88f8d5856c15323a6abOUT 0x2ff3b8900de1b4998d4d15b0d0d33f25118753860 MATIC0.000313348132 8.582999126
0xc431946e57348c0c2cfebea8be013b515a6d5bb99bd12a7584b158ae3776d72cMint275142752022-08-07 13:38:407 days 8 hrs ago0xf674fb0e7976bcdba988a88f8d5856c15323a6abOUT 0x2ff3b8900de1b4998d4d15b0d0d33f25118753860 MATIC0.000306891043 8.403369206
0x383785d9d830190f2ea925cc85573bd615c0a0828dccc1b89973fb36c0734429Mint275140972022-08-07 13:23:477 days 8 hrs ago0xf674fb0e7976bcdba988a88f8d5856c15323a6abOUT 0x2ff3b8900de1b4998d4d15b0d0d33f25118753860 MATIC0.000578870559 15.850782032
0x918455184cbbea35e334cdfc645437e8bf0151bd6a4dd597b3550ca0f161fc07Mint275140952022-08-07 13:23:377 days 8 hrs ago0xf674fb0e7976bcdba988a88f8d5856c15323a6abOUT 0x2ff3b8900de1b4998d4d15b0d0d33f25118753860 MATIC0.000586111618 16.049058553
0x940b346bd251d7a88af8c864dbcc1a913b3e82a4d218b1ec6bd0a6f5105fe846Mint275139182022-08-07 13:08:497 days 9 hrs ago0xf674fb0e7976bcdba988a88f8d5856c15323a6abOUT 0x2ff3b8900de1b4998d4d15b0d0d33f25118753860 MATIC0.000311310231 8.524376547
0x83b9898adfea346b92e050b5608e72bf8917723c6279cb3b6e6d07462ff9f23fMint275139162022-08-07 13:08:397 days 9 hrs ago0xf674fb0e7976bcdba988a88f8d5856c15323a6abOUT 0x2ff3b8900de1b4998d4d15b0d0d33f25118753860 MATIC0.000315087752 8.627813582
[ Download CSV Export 
Parent Txn Hash Block From To Value
Loading

Contract Name:
0 MATIC

Compiler Version
0

Optimization Enabled:
0 MATIC

Other Settings:
-NA-
Block Transaction Gas Used Reward
Age Block Fee Address BC Fee Address Voting Power Jailed Incoming
Block Uncle Number Difficulty Gas Used Reward
Loading